createdAt,value
2018-08-16T00:00:36.478Z,99.90
2018-08-16T00:03:04.747Z,99.90
2018-08-16T00:05:32.346Z,99.90
2018-08-16T00:08:00.218Z,99.90
2018-08-16T00:10:28.361Z,99.90
2018-08-16T00:12:55.963Z,99.90
2018-08-16T00:15:23.525Z,99.90
2018-08-16T00:17:51.115Z,99.90
2018-08-16T00:20:18.689Z,99.90
2018-08-16T00:22:46.608Z,99.90
2018-08-16T00:25:14.716Z,99.90
2018-08-16T00:27:42.363Z,99.90
2018-08-16T00:30:16.374Z,99.90
2018-08-16T00:32:44.260Z,99.90
2018-08-16T00:35:11.947Z,99.90
2018-08-16T00:37:39.449Z,99.90
2018-08-16T00:40:08.684Z,99.90
2018-08-16T00:42:36.360Z,99.90
2018-08-16T00:45:05.422Z,99.90
2018-08-16T00:47:33.731Z,99.90
2018-08-16T00:50:01.751Z,99.90
2018-08-16T00:52:30.113Z,99.90
2018-08-16T00:54:57.688Z,99.90
2018-08-16T00:57:25.795Z,99.90
2018-08-16T00:59:53.330Z,99.90
2018-08-16T01:02:20.947Z,99.90
2018-08-16T01:04:48.462Z,99.90
2018-08-16T01:07:16.009Z,99.90
2018-08-16T01:09:43.566Z,99.90
2018-08-16T01:12:11.196Z,99.90
2018-08-16T01:14:38.728Z,99.90
2018-08-16T01:17:06.350Z,99.90
2018-08-16T01:19:34.016Z,99.90
2018-08-16T01:22:01.761Z,99.90
2018-08-16T01:24:30.178Z,99.90
2018-08-16T01:26:58.462Z,99.90
2018-08-16T01:29:26.046Z,99.90
2018-08-16T01:31:53.691Z,99.90
2018-08-16T01:34:21.237Z,99.90
2018-08-16T01:36:48.918Z,99.90
2018-08-16T01:39:16.459Z,99.90
2018-08-16T01:41:44.034Z,99.90
2018-08-16T01:44:11.679Z,99.90
2018-08-16T01:46:39.241Z,99.90
2018-08-16T01:49:16.971Z,99.90
2018-08-16T01:51:44.523Z,99.90
2018-08-16T01:54:12.094Z,99.90
2018-08-16T01:56:39.627Z,99.90
2018-08-16T01:59:07.217Z,99.90
2018-08-16T02:01:34.799Z,99.90
2018-08-16T02:04:02.415Z,99.90
2018-08-16T02:06:31.116Z,99.90
2018-08-16T02:08:58.670Z,99.90
2018-08-16T02:11:26.209Z,99.90
2018-08-16T02:13:53.761Z,99.90
2018-08-16T02:16:21.367Z,99.90
2018-08-16T02:18:48.907Z,99.90
2018-08-16T02:21:16.493Z,99.90
2018-08-16T02:23:44.028Z,99.90
2018-08-16T02:26:11.635Z,99.90
2018-08-16T02:28:39.169Z,99.90
2018-08-16T02:31:06.688Z,99.90
2018-08-16T02:33:34.265Z,99.90
2018-08-16T02:36:01.836Z,99.90
2018-08-16T02:38:29.885Z,99.90
2018-08-16T02:40:57.440Z,99.90
2018-08-16T02:43:24.997Z,99.90
2018-08-16T02:45:52.616Z,99.90
2018-08-16T02:48:20.147Z,99.90
2018-08-16T02:50:47.839Z,99.90
2018-08-16T02:53:15.316Z,99.90
2018-08-16T02:55:42.856Z,99.90
2018-08-16T02:58:10.413Z,99.90
2018-08-16T03:00:38.049Z,99.90
2018-08-16T03:03:05.593Z,99.90
2018-08-16T03:05:33.122Z,99.90
2018-08-16T03:08:00.672Z,99.90
2018-08-16T03:10:29.128Z,99.90
2018-08-16T03:12:56.684Z,99.90
2018-08-16T03:15:24.223Z,99.90
2018-08-16T03:17:51.757Z,99.90
2018-08-16T03:20:19.273Z,99.90
2018-08-16T03:22:46.908Z,99.90
2018-08-16T03:25:14.433Z,99.90
2018-08-16T03:27:41.987Z,99.90
2018-08-16T03:30:09.578Z,99.90
2018-08-16T03:32:37.149Z,99.90
2018-08-16T03:35:05.237Z,99.90
2018-08-16T03:37:32.796Z,99.90
2018-08-16T03:40:00.464Z,99.90
2018-08-16T03:42:28.815Z,99.90
2018-08-16T03:44:56.402Z,99.90
2018-08-16T03:47:23.956Z,99.90
2018-08-16T03:49:51.522Z,99.90
2018-08-16T03:52:19.081Z,99.90
2018-08-16T03:54:46.654Z,99.90
2018-08-16T03:57:14.234Z,99.90
2018-08-16T03:59:41.755Z,99.90
2018-08-16T04:02:09.344Z,99.90
2018-08-16T04:04:36.886Z,99.90
2018-08-16T04:07:04.498Z,99.90
2018-08-16T04:09:32.065Z,99.90
2018-08-16T04:12:00.099Z,99.90
2018-08-16T04:14:27.635Z,99.90
2018-08-16T04:16:55.196Z,99.90
2018-08-16T04:19:22.735Z,99.90
2018-08-16T04:21:50.314Z,99.90
2018-08-16T04:24:17.828Z,99.90
2018-08-16T04:26:45.381Z,99.90
2018-08-16T04:29:12.951Z,99.90
2018-08-16T04:31:40.439Z,99.90
2018-08-16T04:34:07.980Z,99.90
2018-08-16T04:36:35.517Z,99.90
2018-08-16T04:39:04.575Z,99.90
2018-08-16T04:41:32.224Z,99.80
2018-08-16T04:44:00.417Z,99.90
2018-08-16T04:46:28.633Z,99.90
2018-08-16T04:48:56.212Z,99.50
2018-08-16T04:51:23.762Z,99.40
2018-08-16T04:53:51.482Z,99.40
2018-08-16T04:56:19.054Z,99.40
2018-08-16T04:58:46.644Z,99.10
2018-08-16T05:01:14.260Z,99.10
2018-08-16T05:03:41.759Z,99.20
2018-08-16T05:06:09.663Z,99.10
2018-08-16T05:08:37.184Z,99.10
2018-08-16T05:11:04.830Z,99.20
2018-08-16T05:13:32.367Z,99.30
2018-08-16T05:16:00.739Z,99.30
2018-08-16T05:18:28.882Z,99.30
2018-08-16T05:20:56.512Z,99.00
2018-08-16T05:23:24.044Z,98.90
2018-08-16T05:25:51.592Z,98.90
2018-08-16T05:28:19.130Z,98.90
2018-08-16T05:30:46.742Z,98.90
2018-08-16T05:33:14.328Z,99.00
2018-08-16T05:35:41.931Z,99.10
2018-08-16T05:38:09.550Z,99.10
2018-08-16T05:40:37.112Z,98.90
2018-08-16T05:43:04.836Z,99.10
2018-08-16T05:45:32.328Z,99.10
2018-08-16T05:48:00.205Z,99.20
2018-08-16T05:50:28.254Z,99.20
2018-08-16T05:52:55.847Z,99.20
2018-08-16T05:55:23.451Z,98.70
2018-08-16T05:57:51.005Z,98.70
2018-08-16T06:00:18.632Z,98.60
2018-08-16T06:02:46.220Z,98.40
2018-08-16T06:05:13.788Z,98.30
2018-08-16T06:07:41.433Z,98.20
2018-08-16T06:10:09.847Z,97.90
2018-08-16T06:12:37.497Z,97.70
2018-08-16T06:15:06.269Z,97.80
2018-08-16T06:17:33.879Z,98.10
2018-08-16T06:20:01.461Z,98.00
2018-08-16T06:22:29.730Z,97.90
2018-08-16T06:24:57.294Z,98.10
2018-08-16T06:27:24.875Z,98.10
2018-08-16T06:29:52.485Z,98.20
2018-08-16T06:32:20.089Z,98.30
2018-08-16T06:34:47.686Z,98.40
2018-08-16T06:37:15.277Z,98.30
2018-08-16T06:39:42.837Z,98.30
2018-08-16T06:42:10.421Z,98.30
2018-08-16T06:44:38.010Z,98.40
2018-08-16T06:47:05.572Z,98.20
2018-08-16T06:49:33.105Z,97.90
2018-08-16T06:52:00.711Z,97.60
2018-08-16T06:54:29.187Z,97.30
2018-08-16T06:56:56.799Z,97.00
2018-08-16T06:59:24.387Z,96.80
2018-08-16T07:01:51.970Z,96.70
2018-08-16T07:04:19.534Z,96.90
2018-08-16T07:06:47.101Z,96.40
2018-08-16T07:09:14.677Z,96.60
2018-08-16T07:11:42.323Z,96.60
2018-08-16T07:14:09.925Z,96.40
2018-08-16T07:16:37.501Z,96.00
2018-08-16T07:19:05.070Z,95.80
2018-08-16T07:21:32.629Z,95.70
2018-08-16T07:24:00.499Z,95.50
2018-08-16T07:26:28.687Z,95.30
2018-08-16T07:28:56.233Z,95.20
2018-08-16T07:31:23.799Z,95.00
2018-08-16T07:33:51.430Z,95.00
2018-08-16T07:36:18.995Z,95.00
2018-08-16T07:38:46.566Z,95.00
2018-08-16T07:41:14.120Z,94.90
2018-08-16T07:43:41.731Z,94.90
2018-08-16T07:46:09.432Z,94.90
2018-08-16T07:48:36.911Z,94.80
2018-08-16T07:51:04.643Z,94.60
2018-08-16T07:53:32.226Z,94.30
2018-08-16T07:56:00.650Z,94.10
2018-08-16T07:58:29.224Z,93.90
2018-08-16T08:00:56.795Z,93.80
2018-08-16T08:03:24.372Z,93.50
2018-08-16T08:05:52.014Z,93.20
2018-08-16T08:08:19.631Z,93.00
2018-08-16T08:10:47.232Z,92.70
2018-08-16T08:13:14.843Z,92.40
2018-08-16T08:15:42.451Z,92.10
2018-08-16T08:18:10.074Z,91.80
2018-08-16T08:20:37.654Z,91.20
2018-08-16T08:23:05.253Z,90.90
2018-08-16T08:25:32.997Z,90.60
2018-08-16T08:28:00.519Z,90.20
2018-08-16T08:30:28.666Z,90.10
2018-08-16T08:32:56.299Z,90.00
2018-08-16T08:35:23.874Z,89.90
2018-08-16T08:38:02.322Z,89.60
2018-08-16T08:40:30.170Z,89.30
2018-08-16T08:42:58.262Z,88.80
2018-08-16T08:45:25.834Z,88.10
2018-08-16T08:47:55.982Z,87.20
2018-08-16T08:50:24.079Z,86.20
2018-08-16T08:52:51.581Z,84.40
2018-08-16T08:55:30.371Z,83.50
2018-08-16T08:58:09.348Z,82.50
2018-08-16T09:00:36.980Z,82.20
2018-08-16T09:03:05.094Z,82.30
2018-08-16T09:05:32.647Z,81.80
2018-08-16T09:08:00.224Z,81.20
2018-08-16T09:11:20.219Z,81.30
2018-08-16T09:14:08.321Z,81.40
2018-08-16T09:16:37.110Z,82.30
2018-08-16T09:19:05.329Z,81.10
2018-08-16T09:21:33.411Z,80.70
2018-08-16T09:24:01.129Z,80.10
2018-08-16T09:26:34.360Z,78.90
2018-08-16T09:29:03.433Z,78.20
2018-08-16T09:31:42.447Z,77.80
2018-08-16T09:34:27.581Z,77.70
2018-08-16T09:36:55.150Z,78.20
2018-08-16T09:39:22.827Z,75.60
2018-08-16T09:41:50.395Z,75.00
2018-08-16T09:44:17.926Z,75.50
2018-08-16T09:47:00.960Z,75.50
2018-08-16T09:49:33.989Z,75.30
2018-08-16T09:52:01.674Z,75.40
2018-08-16T09:54:29.321Z,73.90
2018-08-16T09:56:59.152Z,74.10
2018-08-16T09:59:26.823Z,73.60
2018-08-16T10:01:54.472Z,71.00
2018-08-16T10:04:22.120Z,68.70
2018-08-16T10:06:49.739Z,67.40
2018-08-16T10:09:19.428Z,67.50
2018-08-16T10:11:47.419Z,66.30
2018-08-16T10:14:15.327Z,65.90
2018-08-16T10:16:43.111Z,65.00
2018-08-16T10:19:10.711Z,64.50
2018-08-16T10:21:38.385Z,62.70
2018-08-16T10:24:06.025Z,60.80
2018-08-16T10:26:33.719Z,59.80
2018-08-16T10:29:01.375Z,58.90
2018-08-16T10:31:29.596Z,56.70
2018-08-16T10:33:57.347Z,55.20
2018-08-16T10:36:25.182Z,54.70
2018-08-16T10:38:52.859Z,53.70
2018-08-16T10:41:20.440Z,52.60
2018-08-16T10:43:48.004Z,52.00
2018-08-16T10:46:15.600Z,50.70
2018-08-16T10:48:43.166Z,50.50
2018-08-16T10:51:10.716Z,50.10
2018-08-16T10:53:38.352Z,49.50
2018-08-16T10:56:05.990Z,49.10
2018-08-16T10:58:33.564Z,49.90
2018-08-16T11:01:01.177Z,49.40
2018-08-16T11:03:29.015Z,49.10
2018-08-16T11:05:56.562Z,49.00
2018-08-16T11:08:24.732Z,48.70
2018-08-16T11:10:52.334Z,47.80
2018-08-16T11:13:19.951Z,47.30
2018-08-16T11:15:47.580Z,46.50
2018-08-16T11:18:15.154Z,46.30
2018-08-16T11:20:42.706Z,45.60
2018-08-16T11:23:10.425Z,44.90
2018-08-16T11:25:37.978Z,45.50
2018-08-16T11:28:06.142Z,43.90
2018-08-16T11:30:33.794Z,43.10
2018-08-16T11:33:01.389Z,43.50
2018-08-16T11:35:29.602Z,43.80
2018-08-16T11:37:57.231Z,42.70
2018-08-16T11:40:24.736Z,41.90
2018-08-16T11:42:52.343Z,41.40
2018-08-16T11:45:19.884Z,41.20
2018-08-16T11:47:47.434Z,40.40
2018-08-16T11:50:14.988Z,40.10
2018-08-16T11:52:42.502Z,40.00
2018-08-16T11:55:10.111Z,40.30
2018-08-16T11:57:37.654Z,39.90
2018-08-16T12:00:05.445Z,39.60
2018-08-16T12:02:33.072Z,39.00
2018-08-16T12:05:00.686Z,38.50
2018-08-16T12:07:28.473Z,37.50
2018-08-16T12:09:56.005Z,37.80
2018-08-16T12:12:23.595Z,37.70
2018-08-16T12:14:51.194Z,37.30
2018-08-16T12:17:18.767Z,37.20
2018-08-16T12:19:46.357Z,37.00
2018-08-16T12:22:13.920Z,35.40
2018-08-16T12:24:41.512Z,35.10
2018-08-16T12:27:09.185Z,32.90
2018-08-16T12:29:36.715Z,33.70
2018-08-16T12:32:04.473Z,34.00
2018-08-16T12:34:32.005Z,33.10
2018-08-16T12:37:00.138Z,32.90
2018-08-16T12:39:27.715Z,33.50
2018-08-16T12:41:55.284Z,33.30
2018-08-16T12:44:22.851Z,33.20
2018-08-16T12:46:50.413Z,33.10
2018-08-16T12:49:18.025Z,32.90
2018-08-16T12:51:45.614Z,32.30
2018-08-16T12:54:13.231Z,32.50
2018-08-16T12:56:40.869Z,31.60
2018-08-16T12:59:08.478Z,30.70
2018-08-16T13:01:36.044Z,31.50
2018-08-16T13:04:03.697Z,32.00
2018-08-16T13:06:31.280Z,31.90
2018-08-16T13:08:59.518Z,31.00
2018-08-16T13:11:27.058Z,30.40
2018-08-16T13:13:54.605Z,30.10
2018-08-16T13:16:22.210Z,30.10
2018-08-16T13:18:49.771Z,30.50
2018-08-16T13:21:17.364Z,30.50
2018-08-16T13:23:45.055Z,30.10
2018-08-16T13:26:12.504Z,29.80
2018-08-16T13:28:40.079Z,30.10
2018-08-16T13:31:07.719Z,30.00
2018-08-16T13:33:35.274Z,30.00
2018-08-16T13:36:02.852Z,30.00
2018-08-16T13:38:31.114Z,30.00
2018-08-16T13:40:59.366Z,29.50
2018-08-16T13:43:26.959Z,30.20
2018-08-16T13:45:54.594Z,30.90
2018-08-16T13:48:22.190Z,30.90
2018-08-16T13:50:49.848Z,30.00
2018-08-16T13:53:17.460Z,29.60
2018-08-16T13:55:45.098Z,29.40
2018-08-16T13:58:12.658Z,29.50
2018-08-16T14:00:40.243Z,29.10
2018-08-16T14:03:07.755Z,29.20
2018-08-16T14:05:35.309Z,28.80
2018-08-16T14:08:02.999Z,28.60
2018-08-16T14:10:30.573Z,29.10
2018-08-16T14:12:58.704Z,28.90
2018-08-16T14:15:26.268Z,29.60
2018-08-16T14:17:53.837Z,29.70
2018-08-16T14:20:21.409Z,29.80
2018-08-16T14:22:48.959Z,29.80
2018-08-16T14:25:16.599Z,29.30
2018-08-16T14:27:44.421Z,29.50
2018-08-16T14:30:11.958Z,29.20
2018-08-16T14:32:39.476Z,29.70
2018-08-16T14:35:07.161Z,29.40
2018-08-16T14:37:34.725Z,28.60
2018-08-16T14:40:02.303Z,28.40
2018-08-16T14:42:30.830Z,28.50
2018-08-16T14:44:58.985Z,28.80
2018-08-16T14:47:26.594Z,28.70
2018-08-16T14:49:54.122Z,28.60
2018-08-16T14:52:21.649Z,28.70
2018-08-16T14:54:49.253Z,28.80
2018-08-16T14:57:16.781Z,28.90
2018-08-16T14:59:44.309Z,28.30
2018-08-16T15:02:11.865Z,28.70
2018-08-16T15:04:39.399Z,28.70
2018-08-16T15:07:06.947Z,28.20
2018-08-16T15:09:34.486Z,28.50
2018-08-16T15:12:02.055Z,28.40
2018-08-16T15:14:30.193Z,28.60
2018-08-16T15:16:57.732Z,28.50
2018-08-16T15:19:25.301Z,28.60
2018-08-16T15:21:52.876Z,28.60
2018-08-16T15:24:20.903Z,28.80
2018-08-16T15:26:49.268Z,29.20
2018-08-16T15:29:17.479Z,29.00
2018-08-16T15:31:45.016Z,29.00
2018-08-16T15:34:13.203Z,28.20
2018-08-16T15:36:40.811Z,28.20
2018-08-16T15:39:09.384Z,28.70
2018-08-16T15:41:37.163Z,28.70
2018-08-16T15:44:04.818Z,28.50
2018-08-16T15:46:32.399Z,28.50
2018-08-16T15:49:00.194Z,28.50
2018-08-16T15:51:27.780Z,28.20
2018-08-16T15:53:55.325Z,28.40
2018-08-16T15:56:22.882Z,28.30
2018-08-16T15:58:50.465Z,28.20
2018-08-16T16:01:18.170Z,28.40
2018-08-16T16:03:45.902Z,28.90
2018-08-16T16:06:13.557Z,29.00
2018-08-16T16:08:41.023Z,29.20
2018-08-16T16:11:08.548Z,29.70
2018-08-16T16:13:36.481Z,29.70
2018-08-16T16:16:04.341Z,30.00
2018-08-16T16:18:31.942Z,30.00
2018-08-16T16:20:59.694Z,30.10
2018-08-16T16:23:27.304Z,30.10
2018-08-16T16:25:54.883Z,29.90
2018-08-16T16:28:22.637Z,29.70
2018-08-16T16:30:50.710Z,29.70
2018-08-16T16:33:18.327Z,29.70
2018-08-16T16:35:46.005Z,29.90
2018-08-16T16:38:13.930Z,29.90
2018-08-16T16:40:41.509Z,29.80
2018-08-16T16:43:09.108Z,30.10
2018-08-16T16:45:36.661Z,30.00
2018-08-16T16:48:04.561Z,30.60
2018-08-16T16:50:32.139Z,31.30
2018-08-16T16:53:00.834Z,32.10
2018-08-16T16:55:29.235Z,32.60
2018-08-16T16:57:56.821Z,32.00
2018-08-16T17:00:24.404Z,33.00
2018-08-16T17:02:51.984Z,33.20
2018-08-16T17:05:19.577Z,33.90
2018-08-16T17:07:47.168Z,34.00
2018-08-16T17:10:14.731Z,34.30
2018-08-16T17:12:43.242Z,34.80
2018-08-16T17:15:10.849Z,34.80
2018-08-16T17:17:39.303Z,35.00
2018-08-16T17:20:07.475Z,35.50
2018-08-16T17:22:35.028Z,36.40
2018-08-16T17:25:02.654Z,36.70
2018-08-16T17:27:30.230Z,37.30
2018-08-16T17:29:57.784Z,37.70
2018-08-16T17:32:25.461Z,38.60
2018-08-16T17:34:53.048Z,39.50
2018-08-16T17:37:20.604Z,39.70
2018-08-16T17:39:48.861Z,40.60
2018-08-16T17:42:16.498Z,41.40
2018-08-16T17:44:44.081Z,42.60
2018-08-16T17:47:11.665Z,43.60
2018-08-16T17:49:39.266Z,44.20
2018-08-16T17:52:10.356Z,44.70
2018-08-16T17:54:37.902Z,45.30
2018-08-16T17:57:06.258Z,45.70
2018-08-16T17:59:34.060Z,46.00
2018-08-16T18:02:01.692Z,46.30
2018-08-16T18:04:30.344Z,46.80
2018-08-16T18:06:58.836Z,47.30
2018-08-16T18:09:26.426Z,47.70
2018-08-16T18:11:54.376Z,47.90
2018-08-16T18:14:21.999Z,49.00
2018-08-16T18:16:49.846Z,48.60
2018-08-16T18:19:18.300Z,49.10
2018-08-16T18:21:46.554Z,49.20
2018-08-16T18:24:14.236Z,49.60
2018-08-16T18:26:41.794Z,50.00
2018-08-16T18:29:09.702Z,50.30
2018-08-16T18:31:37.337Z,50.80
2018-08-16T18:34:05.380Z,51.30
2018-08-16T18:36:33.013Z,51.50
2018-08-16T18:39:01.022Z,51.70
2018-08-16T18:41:31.423Z,51.90
2018-08-16T18:43:59.816Z,51.90
2018-08-16T18:46:27.580Z,51.90
2018-08-16T18:48:56.694Z,52.10
2018-08-16T18:51:24.734Z,52.50
2018-08-16T18:53:52.752Z,53.00
2018-08-16T18:56:20.538Z,53.30
2018-08-16T18:58:48.181Z,53.80
2018-08-16T19:01:15.996Z,54.20
2018-08-16T19:03:43.809Z,54.80
2018-08-16T19:06:12.072Z,55.90
2018-08-16T19:08:40.331Z,57.00
2018-08-16T19:11:08.509Z,57.30
2018-08-16T19:13:36.193Z,57.90
2018-08-16T19:16:03.850Z,58.60
2018-08-16T19:18:33.058Z,59.50
2018-08-16T19:21:00.833Z,60.20
2018-08-16T19:23:29.096Z,62.00
2018-08-16T19:25:56.803Z,62.70
2018-08-16T19:28:24.477Z,63.50
2018-08-16T19:30:52.187Z,64.10
2018-08-16T19:33:19.835Z,64.40
2018-08-16T19:35:47.583Z,64.60
2018-08-16T19:38:15.885Z,64.90
2018-08-16T19:40:43.583Z,64.90
2018-08-16T19:43:11.234Z,65.30
2018-08-16T19:45:39.128Z,65.80
2018-08-16T19:48:07.094Z,66.70
2018-08-16T19:50:34.690Z,67.00
2018-08-16T19:53:03.076Z,67.50
2018-08-16T19:55:30.768Z,67.80
2018-08-16T19:57:59.047Z,68.10
2018-08-16T20:00:26.716Z,68.70
2018-08-16T20:02:54.382Z,69.10
2018-08-16T20:05:21.978Z,69.30
2018-08-16T20:07:50.176Z,69.40
2018-08-16T20:10:17.902Z,70.40
2018-08-16T20:12:45.590Z,70.90
2018-08-16T20:15:13.300Z,71.50
2018-08-16T20:17:40.934Z,71.70
2018-08-16T20:20:09.010Z,71.70
2018-08-16T20:22:38.007Z,72.00
2018-08-16T20:25:05.799Z,72.70
2018-08-16T20:27:33.399Z,73.40
2018-08-16T20:30:01.939Z,74.10
2018-08-16T20:32:29.660Z,75.10
2018-08-16T20:34:57.281Z,75.70
2018-08-16T20:37:24.854Z,76.10
2018-08-16T20:39:52.624Z,76.80
2018-08-16T20:42:20.243Z,77.50
2018-08-16T20:44:47.869Z,78.20
2018-08-16T20:47:15.465Z,78.20
2018-08-16T20:49:43.027Z,78.10
2018-08-16T20:52:10.663Z,78.50
2018-08-16T20:54:38.237Z,78.60
2018-08-16T20:57:05.871Z,78.80
2018-08-16T20:59:33.459Z,79.50
2018-08-16T21:02:01.625Z,80.00
2018-08-16T21:04:29.585Z,80.20
2018-08-16T21:06:57.280Z,80.70
2018-08-16T21:09:24.817Z,81.70
2018-08-16T21:11:52.391Z,82.50
2018-08-16T21:14:19.964Z,82.90
2018-08-16T21:16:47.775Z,82.80
2018-08-16T21:19:15.803Z,83.00
2018-08-16T21:21:43.468Z,83.30
2018-08-16T21:24:11.033Z,83.70
2018-08-16T21:26:38.577Z,84.00
2018-08-16T21:29:06.136Z,84.30
2018-08-16T21:31:33.732Z,85.30
2018-08-16T21:34:02.160Z,85.00
2018-08-16T21:36:30.684Z,85.50
2018-08-16T21:38:58.468Z,85.90
2018-08-16T21:41:26.083Z,86.10
2018-08-16T21:43:53.641Z,86.40
2018-08-16T21:46:21.220Z,86.60
2018-08-16T21:48:48.817Z,87.10
2018-08-16T21:51:16.396Z,87.30
2018-08-16T21:53:43.976Z,87.50
2018-08-16T21:56:11.522Z,87.60
2018-08-16T21:58:39.089Z,88.10
2018-08-16T22:01:07.418Z,88.90
2018-08-16T22:03:34.939Z,90.00
2018-08-16T22:06:04.740Z,90.30
2018-08-16T22:08:44.616Z,90.50
2018-08-16T22:11:12.215Z,90.60
2018-08-16T22:13:39.954Z,90.70
2018-08-16T22:16:07.591Z,90.60
2018-08-16T22:18:35.364Z,90.50
2018-08-16T22:21:02.909Z,90.50
2018-08-16T22:23:31.426Z,90.50
2018-08-16T22:25:59.786Z,90.60
2018-08-16T22:28:27.352Z,90.70
2018-08-16T22:30:54.863Z,90.90
2018-08-16T22:33:22.419Z,91.00
2018-08-16T22:35:49.956Z,91.20
2018-08-16T22:38:17.537Z,91.40
2018-08-16T22:40:45.228Z,91.90
2018-08-16T22:43:12.747Z,91.70
2018-08-16T22:45:40.363Z,91.70
2018-08-16T22:48:07.899Z,91.80
2018-08-16T22:50:35.710Z,91.90
2018-08-16T22:53:03.520Z,91.90
2018-08-16T22:55:31.243Z,92.10
2018-08-16T22:57:59.609Z,92.10
2018-08-16T23:00:27.224Z,92.20
2018-08-16T23:02:54.810Z,92.20
2018-08-16T23:05:22.433Z,92.20
2018-08-16T23:07:50.189Z,92.30
2018-08-16T23:10:18.010Z,92.40
2018-08-16T23:12:45.540Z,92.50
2018-08-16T23:15:13.108Z,92.60
2018-08-16T23:17:40.741Z,92.60
2018-08-16T23:20:09.034Z,92.60
2018-08-16T23:22:36.577Z,92.90
2018-08-16T23:25:04.661Z,93.00
2018-08-16T23:27:32.188Z,92.70
2018-08-16T23:30:00.707Z,92.90
2018-08-16T23:32:28.574Z,93.00
2018-08-16T23:34:56.199Z,93.20
2018-08-16T23:37:23.713Z,93.30
2018-08-16T23:39:51.258Z,93.40
2018-08-16T23:42:18.834Z,93.50
2018-08-16T23:44:46.749Z,93.50
2018-08-16T23:47:14.406Z,93.50
2018-08-16T23:49:42.046Z,93.50
2018-08-16T23:52:09.609Z,93.50
2018-08-16T23:54:37.418Z,93.50
2018-08-16T23:57:05.142Z,93.40
2018-08-16T23:59:32.738Z,93.40
